Time;durP1;ratioP1;P1;durP2;ratioP2;P2;SDS_P1;SDS_P2;PMS_P1;PMS_P2;Temp;Humidity;BMP_temperature;BMP_pressure;BME280_temperature;BME280_humidity;BME280_pressure;Samples;Min_cycle;Max_cycle;Signal;HPM_P1;HPM_P2
2021/12/29 00:00:33;;;;;;;6.32;1.50;;;;;;;7.78;80.81;95323.66;4940286;29;20055;-79
2021/12/29 00:03:03;;;;;;;8.65;1.58;;;;;;;7.79;80.80;95332.25;4939986;29;20048;-80
2021/12/29 00:05:31;;;;;;;7.75;1.38;;;;;;;7.79;80.82;95327.06;4938417;29;20597;-83
2021/12/29 00:07:59;;;;;;;10.18;1.88;;;;;;;7.77;80.82;95332.44;4937170;29;20074;-78
2021/12/29 00:10:28;;;;;;;9.43;2.58;;;;;;;7.76;81.10;95340.41;4937570;29;20048;-78
2021/12/29 00:12:56;;;;;;;5.20;1.83;;;;;;;7.73;81.02;95351.97;4937542;29;20056;-79
2021/12/29 00:15:27;;;;;;;7.53;1.35;;;;;;;7.73;81.24;95361.56;4937783;29;20062;-80
2021/12/29 00:17:57;;;;;;;8.52;1.58;;;;;;;7.72;81.40;95363.38;4937335;29;20056;-80
2021/12/29 00:20:28;;;;;;;7.80;1.73;;;;;;;7.72;81.35;95350.41;4937562;29;20066;-78
2021/12/29 00:22:57;;;;;;;9.23;1.87;;;;;;;7.71;80.84;95364.34;4940822;29;20047;-81
2021/12/29 00:25:25;;;;;;;4.45;1.20;;;;;;;7.71;81.33;95360.97;4938734;29;20054;-78
2021/12/29 00:27:55;;;;;;;9.82;1.77;;;;;;;7.70;81.98;95360.16;4939443;29;20056;-81
2021/12/29 00:30:24;;;;;;;10.23;1.70;;;;;;;7.70;81.35;95367.97;4941033;29;20079;-78
2021/12/29 00:32:51;;;;;;;7.28;1.85;;;;;;;7.69;81.26;95381.91;4940896;29;20051;-80
2021/12/29 00:35:19;;;;;;;4.93;1.13;;;;;;;7.68;81.24;95369.94;4939599;29;20055;-77
2021/12/29 00:37:47;;;;;;;10.98;2.17;;;;;;;7.67;81.06;95383.91;4937378;29;20051;-79
2021/12/29 00:40:15;;;;;;;10.20;3.40;;;;;;;7.67;81.15;95394.28;4937415;29;20055;-80
2021/12/29 00:42:42;;;;;;;4.88;1.63;;;;;;;7.66;80.85;95399.69;4939069;29;20059;-80
2021/12/29 00:45:12;;;;;;;10.63;1.95;;;;;;;7.65;80.85;95404.06;4940197;29;20051;-77
2021/12/29 00:47:39;;;;;;;5.45;1.80;;;;;;;7.64;81.24;95398.06;4938475;29;20048;-78
2021/12/29 00:50:13;;;;;;;7.30;1.60;;;;;;;7.66;81.06;95397.88;4940200;29;20055;-78
2021/12/29 00:52:41;;;;;;;8.23;2.58;;;;;;;7.66;81.20;95403.06;4938552;29;20505;-78
2021/12/29 00:55:09;;;;;;;5.32;1.42;;;;;;;7.67;81.63;95403.88;4938287;29;20051;-77
2021/12/29 00:57:37;;;;;;;6.80;1.15;;;;;;;7.67;81.44;95406.47;4936991;29;20055;-77
2021/12/29 01:00:06;;;;;;;4.85;1.15;;;;;;;7.66;81.60;95429.03;4937299;29;20470;-78
2021/12/29 01:02:35;;;;;;;6.55;1.50;;;;;;;7.67;81.25;95425.44;4939787;29;20524;-76
2021/12/29 01:05:04;;;;;;;9.82;1.77;;;;;;;7.67;81.15;95440.22;4938845;29;20044;-78
2021/12/29 01:07:31;;;;;;;7.53;1.88;;;;;;;7.66;81.36;95444.59;4938640;29;20056;-78
2021/12/29 01:09:59;;;;;;;5.53;2.00;;;;;;;7.66;81.32;95454.19;4938484;29;20051;-80
2021/12/29 01:12:27;;;;;;;7.20;1.55;;;;;;;7.65;81.72;95458.56;4937759;29;20048;-77
2021/12/29 01:14:56;;;;;;;10.25;1.73;;;;;;;7.67;81.61;95468.75;4939178;29;20078;-81
2021/12/29 01:17:25;;;;;;;6.90;1.08;;;;;;;7.66;81.20;95480.94;4937704;29;20059;-79
2021/12/29 01:19:56;;;;;;;9.88;2.08;;;;;;;7.65;81.54;95474.13;4938419;29;20051;-78
2021/12/29 01:22:24;;;;;;;9.52;1.65;;;;;;;7.62;81.63;95484.91;4940469;29;20047;-76
2021/12/29 01:24:52;;;;;;;5.90;1.42;;;;;;;7.62;81.64;95485.69;4941190;29;20051;-77
2021/12/29 01:27:19;;;;;;;9.90;2.15;;;;;;;7.62;81.63;95495.28;4941808;29;20052;-78
2021/12/29 01:29:47;;;;;;;5.55;1.08;;;;;;;7.62;81.89;95484.91;4941061;29;20067;-79
2021/12/29 01:32:14;;;;;;;3.80;0.95;;;;;;;7.63;81.59;95491.69;4969624;23;20529;-77
2021/12/29 01:34:42;;;;;;;5.57;1.90;;;;;;;7.62;81.51;95498.69;4957239;29;20054;-77
2021/12/29 01:37:11;;;;;;;5.20;0.98;;;;;;;7.65;81.21;95515.66;4956676;28;20440;-77
2021/12/29 01:39:38;;;;;;;6.00;1.27;;;;;;;7.64;81.51;95516.66;4957280;28;20054;-77
2021/12/29 01:42:06;;;;;;;4.88;1.20;;;;;;;7.66;81.29;95511.28;4946488;29;20051;-77
2021/12/29 01:44:33;;;;;;;5.28;1.20;;;;;;;7.64;81.46;95511.47;4937974;29;20048;-77
2021/12/29 01:47:01;;;;;;;6.95;1.27;;;;;;;7.64;81.38;95516.66;4937647;29;20059;-77
2021/12/29 01:49:29;;;;;;;5.00;1.17;;;;;;;7.62;81.24;95506.47;4938163;29;20052;-77
2021/12/29 01:52:09;;;;;;;5.18;0.82;;;;;;;7.63;81.13;95517.63;4937544;29;20059;-77
2021/12/29 01:54:38;;;;;;;4.13;1.13;;;;;;;7.64;81.09;95524.44;4937971;29;20059;-77
2021/12/29 01:57:10;;;;;;;7.43;1.42;;;;;;;7.62;81.12;95523.84;4937945;29;20509;-79
2021/12/29 01:59:37;;;;;;;5.70;1.40;;;;;;;7.61;81.34;95527.44;4937497;29;20490;-80
2021/12/29 02:02:05;;;;;;;5.80;0.90;;;;;;;7.61;81.16;95535.22;4937295;29;20079;-79
2021/12/29 02:04:33;;;;;;;6.43;1.35;;;;;;;7.62;81.17;95531.63;4937583;29;20111;-79
2021/12/29 02:07:04;;;;;;;3.50;0.73;;;;;;;7.62;81.23;95536.81;4937187;29;20425;-79
2021/12/29 02:09:31;;;;;;;5.35;1.38;;;;;;;7.60;81.19;95536.19;4937436;29;20443;-79
2021/12/29 02:12:02;;;;;;;4.72;1.20;;;;;;;7.62;81.80;95548.00;4936995;29;20513;-80
2021/12/29 02:14:29;;;;;;;6.20;1.30;;;;;;;7.62;81.27;95548.00;4937251;29;20055;-80
2021/12/29 02:16:57;;;;;;;4.30;0.88;;;;;;;7.61;81.42;95556.78;4937054;29;20059;-80
2021/12/29 02:19:25;;;;;;;5.25;1.08;;;;;;;7.63;81.31;95559.16;4937182;29;20502;-79
2021/12/29 02:22:02;;;;;;;4.80;1.02;;;;;;;7.63;81.50;95561.75;4937169;29;20048;-79
2021/12/29 02:24:39;;;;;;;2.30;0.68;;;;;;;7.62;81.34;95567.97;4937638;29;20052;-79
2021/12/29 02:27:08;;;;;;;3.83;0.80;;;;;;;7.62;81.67;95570.56;4937116;29;20055;-79
2021/12/29 02:29:37;;;;;;;3.85;0.88;;;;;;;7.62;82.18;95562.75;4937518;29;20063;-79
2021/12/29 02:32:05;;;;;;;4.50;1.05;;;;;;;7.64;82.14;95566.78;4936245;29;20473;-79
2021/12/29 02:34:33;;;;;;;4.78;1.13;;;;;;;7.65;81.94;95577.94;4936894;29;20561;-79
2021/12/29 02:37:03;;;;;;;4.15;0.82;;;;;;;7.65;82.06;95590.94;4936954;29;20528;-79
2021/12/29 02:39:33;;;;;;;6.20;1.23;;;;;;;7.65;81.89;95588.34;4936996;29;20056;-80
2021/12/29 02:42:04;;;;;;;3.45;0.88;;;;;;;7.63;82.12;95600.69;4936485;29;20055;-80
2021/12/29 02:44:39;;;;;;;4.65;0.82;;;;;;;7.63;82.29;95609.31;4936883;29;20058;-79
2021/12/29 02:47:07;;;;;;;4.95;0.80;;;;;;;7.63;82.31;95611.06;4936496;29;20056;-80
2021/12/29 02:49:35;;;;;;;3.17;0.85;;;;;;;7.62;82.14;95622.47;4936704;29;20067;-79
2021/12/29 02:52:05;;;;;;;8.02;1.33;;;;;;;7.61;83.00;95613.09;4936473;29;20111;-79
2021/12/29 02:54:33;;;;;;;7.88;1.08;;;;;;;7.61;83.00;95619.06;4936914;29;20056;-79
2021/12/29 02:57:00;;;;;;;3.55;0.82;;;;;;;7.60;82.55;95627.03;4936298;29;20126;-79
2021/12/29 02:59:28;;;;;;;4.10;0.80;;;;;;;7.58;82.50;95623.81;4936835;29;20055;-79
2021/12/29 03:01:55;;;;;;;7.60;1.23;;;;;;;7.59;82.66;95630.63;4936409;29;20052;-79
2021/12/29 03:04:23;;;;;;;2.78;0.82;;;;;;;7.59;82.76;95636.63;4936262;29;20518;-77
2021/12/29 03:06:50;;;;;;;1.40;0.70;;;;;;;7.58;82.68;95631.59;4935805;29;20055;-77
2021/12/29 03:09:19;;;;;;;2.88;0.80;;;;;;;7.59;82.92;95643.59;4936520;29;20048;-77
2021/12/29 03:11:48;;;;;;;3.92;0.90;;;;;;;7.59;82.76;95646.22;4936315;29;20060;-77
2021/12/29 03:14:17;;;;;;;5.70;1.02;;;;;;;7.60;83.47;95655.59;4936189;29;20430;-79
2021/12/29 03:16:45;;;;;;;1.67;0.70;;;;;;;7.60;83.42;95664.16;4935760;29;20051;-79
2021/12/29 03:19:13;;;;;;;3.20;0.90;;;;;;;7.61;83.32;95665.00;4935911;29;20502;-79
2021/12/29 03:21:40;;;;;;;4.07;0.82;;;;;;;7.62;83.17;95682.16;4936137;29;20055;-79
2021/12/29 03:24:08;;;;;;;3.05;1.20;;;;;;;7.59;83.17;95672.97;4936042;29;20474;-79
2021/12/29 03:26:38;;;;;;;1.98;0.50;;;;;;;7.59;83.40;95672.97;4935757;29;20062;-80
2021/12/29 03:29:07;;;;;;;3.55;1.33;;;;;;;7.60;83.27;95673.75;4935739;29;20502;-79
2021/12/29 03:31:38;;;;;;;2.92;1.10;;;;;;;7.61;83.16;95670.19;4936006;29;20048;-79
2021/12/29 03:34:06;;;;;;;3.72;0.70;;;;;;;7.60;83.27;95663.38;4935907;29;20075;-80
2021/12/29 03:36:34;;;;;;;2.00;1.02;;;;;;;7.61;83.23;95665.00;4935598;29;20047;-79
2021/12/29 03:39:02;;;;;;;2.88;0.90;;;;;;;7.60;83.24;95663.38;4935628;29;20059;-77
2021/12/29 03:41:29;;;;;;;2.53;0.88;;;;;;;7.61;83.29;95680.56;4936048;29;20056;-77
2021/12/29 03:43:58;;;;;;;4.53;0.77;;;;;;;7.60;83.39;95682.34;4935128;29;20074;-79
2021/12/29 03:46:27;;;;;;;4.13;1.58;;;;;;;7.61;83.06;95685.75;4935158;29;20419;-79
2021/12/29 03:48:55;;;;;;;4.07;0.75;;;;;;;7.60;83.07;95699.72;4935685;29;20058;-77
2021/12/29 03:51:23;;;;;;;1.90;0.43;;;;;;;7.59;83.05;95704.09;4935837;29;20107;-77
2021/12/29 03:53:50;;;;;;;3.72;0.65;;;;;;;7.59;82.86;95706.69;4935679;29;20056;-77
2021/12/29 03:56:18;;;;;;;2.58;0.50;;;;;;;7.59;83.21;95704.09;4935377;29;20047;-77
2021/12/29 03:58:45;;;;;;;2.45;0.90;;;;;;;7.62;83.27;95700.31;4935886;29;20482;-77
2021/12/29 04:01:16;;;;;;;2.33;0.65;;;;;;;7.62;83.15;95703.72;4935689;29;20450;-77
2021/12/29 04:03:45;;;;;;;4.25;0.70;;;;;;;7.62;83.29;95708.13;4935683;29;20110;-77
2021/12/29 04:06:16;;;;;;;1.63;0.70;;;;;;;7.62;83.22;95721.09;4935429;29;20058;-77
2021/12/29 04:08:44;;;;;;;2.45;0.43;;;;;;;7.62;82.90;95719.28;4935535;29;20052;-77
2021/12/29 04:11:14;;;;;;;2.33;0.80;;;;;;;7.61;82.94;95711.72;4935502;29;20058;-77
2021/12/29 04:13:43;;;;;;;3.45;0.75;;;;;;;7.62;82.96;95728.88;4935472;29;20054;-77
2021/12/29 04:16:16;;;;;;;0.80;0.60;;;;;;;7.61;82.87;95727.28;4935273;29;20435;-77
2021/12/29 04:19:05;;;;;;;1.13;0.60;;;;;;;7.63;82.90;95735.66;4935289;29;20055;-77
2021/12/29 04:21:35;;;;;;;2.38;0.80;;;;;;;7.62;82.81;95739.25;4935250;29;20052;-77
2021/12/29 04:24:02;;;;;;;2.28;0.73;;;;;;;7.63;83.04;95743.44;4934973;29;20062;-77
2021/12/29 04:26:32;;;;;;;1.23;0.70;;;;;;;7.64;83.04;95742.47;4934922;29;20071;-77
2021/12/29 04:29:00;;;;;;;3.60;0.70;;;;;;;7.63;82.98;95743.44;4935250;29;20466;-77
2021/12/29 04:31:27;;;;;;;3.20;0.70;;;;;;;7.64;82.80;95750.25;4935030;29;20055;-76
2021/12/29 04:33:56;;;;;;;1.10;0.75;;;;;;;7.64;82.53;95747.66;4935214;29;20063;-77
2021/12/29 04:36:24;;;;;;;1.50;0.63;;;;;;;7.65;82.47;95751.84;4934685;29;20051;-77
2021/12/29 04:38:53;;;;;;;2.08;0.40;;;;;;;7.67;82.54;95755.06;4935486;29;20055;-77
2021/12/29 04:41:21;;;;;;;2.67;1.15;;;;;;;7.67;82.37;95757.66;4935077;29;20051;-77
2021/12/29 04:43:49;;;;;;;1.27;0.68;;;;;;;7.68;82.62;95758.50;4934978;29;20044;-77
2021/12/29 04:46:19;;;;;;;1.65;0.70;;;;;;;7.66;82.53;95755.28;4934903;29;20417;-77
2021/12/29 04:48:51;;;;;;;2.83;0.65;;;;;;;7.65;82.57;95762.25;4935172;29;20054;-77
2021/12/29 04:51:25;;;;;;;1.35;0.57;;;;;;;7.64;82.97;95773.63;4935004;29;20051;-77
2021/12/29 04:53:53;;;;;;;2.38;0.30;;;;;;;7.65;82.73;95775.22;4934848;29;20059;-77
2021/12/29 04:56:20;;;;;;;2.08;0.65;;;;;;;7.65;83.08;95780.41;4936534;29;20063;-77
2021/12/29 04:58:48;;;;;;;1.75;0.70;;;;;;;7.66;83.10;95779.44;4938779;29;20429;-77
2021/12/29 05:01:16;;;;;;;1.65;0.40;;;;;;;7.65;83.15;95793.38;4938751;29;20051;-77
2021/12/29 05:03:44;;;;;;;1.25;0.40;;;;;;;7.66;83.38;95787.22;4938739;29;20145;-76
2021/12/29 05:08:59;;;;;;;1.45;0.70;;;;;;;7.68;83.54;95805.22;4938863;29;20059;-77
2021/12/29 05:11:26;;;;;;;2.20;0.77;;;;;;;7.70;83.22;95803.25;4938544;29;20052;-77
2021/12/29 05:13:55;;;;;;;1.55;0.60;;;;;;;7.71;83.02;95795.25;4938482;29;20058;-77
2021/12/29 05:16:27;;;;;;;1.42;0.70;;;;;;;7.72;83.14;95798.66;4938230;29;20059;-77
2021/12/29 05:18:57;;;;;;;2.38;0.80;;;;;;;7.74;83.62;95794.91;4938443;29;20083;-77
2021/12/29 05:21:26;;;;;;;2.10;0.60;;;;;;;7.74;83.37;95802.69;4938358;29;20454;-77
2021/12/29 05:23:54;;;;;;;0.95;0.60;;;;;;;7.74;83.20;95800.09;4938383;29;20101;-77
2021/12/29 05:26:23;;;;;;;2.22;0.45;;;;;;;7.74;82.76;95796.69;4937680;29;20502;-77
2021/12/29 05:28:51;;;;;;;1.83;0.55;;;;;;;7.74;83.03;95810.47;4938426;29;20051;-77
2021/12/29 05:31:18;;;;;;;1.15;0.47;;;;;;;7.74;83.07;95815.69;4938329;29;20060;-77
2021/12/29 05:33:46;;;;;;;1.98;0.80;;;;;;;7.75;82.73;95826.84;4939196;29;20179;-77
2021/12/29 05:36:14;;;;;;;0.65;0.50;;;;;;;7.76;83.13;95818.91;4938187;29;20047;-77
2021/12/29 05:38:41;;;;;;;3.72;0.52;;;;;;;7.79;82.90;95815.91;4939636;29;20084;-77
2021/12/29 05:41:09;;;;;;;0.80;0.60;;;;;;;7.80;82.84;95820.09;4939703;29;20051;-77
2021/12/29 05:43:38;;;;;;;5.90;1.85;;;;;;;7.80;82.39;95825.31;4939285;29;20052;-77
2021/12/29 05:46:05;;;;;;;2.20;0.50;;;;;;;7.78;82.53;95829.91;4938841;29;20059;-77
2021/12/29 05:48:33;;;;;;;1.88;0.70;;;;;;;7.76;82.55;95833.66;4938342;29;20048;-77
2021/12/29 05:51:01;;;;;;;0.93;0.40;;;;;;;7.76;82.65;95834.47;4937895;29;20197;-77
2021/12/29 05:53:29;;;;;;;2.10;0.45;;;;;;;7.77;82.81;95832.66;4937813;29;20421;-77
2021/12/29 05:55:56;;;;;;;1.20;0.30;;;;;;;7.78;82.98;95845.47;4937937;29;20047;-77
2021/12/29 05:58:24;;;;;;;1.17;0.40;;;;;;;7.80;82.97;95845.28;4937972;29;20074;-77
2021/12/29 06:00:53;;;;;;;1.33;0.43;;;;;;;7.80;82.39;95858.25;4937806;29;20063;-77
2021/12/29 06:03:21;;;;;;;0.20;0.20;;;;;;;7.79;82.15;95854.88;4937763;29;20091;-77
2021/12/29 06:05:51;;;;;;;1.35;0.38;;;;;;;7.79;82.52;95859.25;4937445;29;20058;-77
2021/12/29 06:08:18;;;;;;;0.68;0.20;;;;;;;7.79;82.74;95860.06;4937023;29;20414;-77
2021/12/29 06:10:46;;;;;;;0.60;0.43;;;;;;;7.81;82.79;95865.88;4937743;29;20055;-77
2021/12/29 06:13:14;;;;;;;1.10;0.40;;;;;;;7.80;82.76;95873.84;4937402;29;20073;-77
2021/12/29 06:15:41;;;;;;;0.98;0.25;;;;;;;7.80;82.33;95872.03;4937308;29;20110;-77
2021/12/29 06:18:10;;;;;;;1.10;0.40;;;;;;;7.79;82.25;95872.25;4937095;29;20052;-77
2021/12/29 06:20:39;;;;;;;0.80;0.50;;;;;;;7.79;82.43;95875.63;4937445;29;20056;-77
2021/12/29 06:23:07;;;;;;;0.45;0.20;;;;;;;7.78;82.46;95884.44;4937422;29;20054;-77
2021/12/29 06:25:34;;;;;;;0.32;0.32;;;;;;;7.79;82.38;95880.03;4937380;29;20454;-77
2021/12/29 06:28:02;;;;;;;0.65;0.40;;;;;;;7.81;82.57;95875.47;4936668;29;20553;-77
2021/12/29 06:30:29;;;;;;;0.40;0.40;;;;;;;7.82;82.38;95885.66;4937315;29;20513;-77
2021/12/29 06:32:57;;;;;;;0.35;0.20;;;;;;;7.82;82.36;95885.66;4936977;29;20054;-77
2021/12/29 06:35:26;;;;;;;1.85;0.70;;;;;;;7.84;82.81;95893.25;4937017;29;20055;-77
2021/12/29 06:37:53;;;;;;;1.13;0.40;;;;;;;7.84;83.03;95895.84;4937040;29;20044;-77
2021/12/29 06:40:21;;;;;;;1.38;0.20;;;;;;;7.84;82.64;95894.06;4938570;29;20066;-77
2021/12/29 06:42:48;;;;;;;2.50;0.45;;;;;;;7.87;82.47;95892.09;4937039;29;20059;-77
2021/12/29 06:45:16;;;;;;;1.98;0.25;;;;;;;7.87;82.25;95898.09;4938384;29;20067;-77
2021/12/29 06:47:44;;;;;;;1.85;0.85;;;;;;;7.89;82.47;95897.91;4938511;29;20055;-77
2021/12/29 06:50:11;;;;;;;2.83;0.30;;;;;;;7.90;81.93;95894.34;4938441;29;20056;-77
2021/12/29 06:52:40;;;;;;;0.25;0.20;;;;;;;7.90;81.63;95902.13;4936843;29;20047;-77
2021/12/29 06:55:09;;;;;;;3.08;0.63;;;;;;;7.87;81.87;95912.88;4936827;29;20059;-77
2021/12/29 06:57:36;;;;;;;0.50;0.50;;;;;;;7.83;81.75;95908.03;4936620;29;20051;-76
2021/12/29 07:00:05;;;;;;;0.93;0.75;;;;;;;7.80;81.95;95908.38;4936663;29;20058;-77
2021/12/29 07:02:33;;;;;;;0.90;0.60;;;;;;;7.79;81.36;95918.97;4936540;29;20055;-77
2021/12/29 07:05:00;;;;;;;2.42;1.10;;;;;;;7.78;82.20;95922.53;4936528;29;20055;-77
2021/12/29 07:07:28;;;;;;;1.95;0.95;;;;;;;7.79;82.40;95930.16;4936216;29;20051;-76
2021/12/29 07:09:57;;;;;;;1.35;1.25;;;;;;;7.80;82.57;95928.34;4936465;29;20089;-77
2021/12/29 07:12:24;;;;;;;0.93;0.77;;;;;;;7.78;82.40;95938.94;4936312;29;20067;-77
2021/12/29 07:14:52;;;;;;;1.17;0.90;;;;;;;7.79;82.76;95942.34;4936299;29;20063;-77
2021/12/29 07:17:20;;;;;;;0.80;0.80;;;;;;;7.81;83.00;95943.78;4936228;29;20056;-77
2021/12/29 07:19:47;;;;;;;0.77;0.63;;;;;;;7.86;83.05;95948.41;4935649;29;20070;-77
2021/12/29 07:22:15;;;;;;;0.60;0.60;;;;;;;7.88;82.58;95956.03;4936083;29;20521;-77
2021/12/29 07:24:43;;;;;;;0.80;0.50;;;;;;;7.87;82.65;95959.59;4936199;29;20055;-77
2021/12/29 07:27:12;;;;;;;0.95;0.40;;;;;;;7.88;82.37;95958.63;4935809;29;20055;-77
2021/12/29 07:29:39;;;;;;;1.10;0.65;;;;;;;7.89;82.84;95953.22;4936355;29;20052;-77
2021/12/29 07:32:07;;;;;;;1.33;0.80;;;;;;;7.89;83.17;95965.41;4936022;29;20056;-77
2021/12/29 07:34:35;;;;;;;0.40;0.40;;;;;;;7.86;83.29;95968.38;4936085;29;20059;-77
2021/12/29 07:37:03;;;;;;;0.50;0.30;;;;;;;7.84;83.03;95968.56;4935957;29;20055;-77
2021/12/29 07:39:31;;;;;;;0.93;0.57;;;;;;;7.81;83.64;95972.31;4935911;29;20434;-77
2021/12/29 07:41:59;;;;;;;1.75;0.55;;;;;;;7.80;83.76;95969.91;4936069;29;20062;-77
2021/12/29 07:44:28;;;;;;;1.30;0.50;;;;;;;7.78;84.00;95967.50;4936209;29;20056;-77
2021/12/29 07:46:58;;;;;;;1.48;0.70;;;;;;;7.77;84.18;95970.28;4944372;29;20043;-77
2021/12/29 07:49:26;;;;;;;1.80;0.70;;;;;;;7.76;84.25;95973.84;4946635;29;20056;-77
2021/12/29 07:51:55;;;;;;;1.10;0.70;;;;;;;7.74;83.78;95974.03;4946589;29;20354;-77
2021/12/29 07:54:23;;;;;;;2.38;0.80;;;;;;;7.74;84.16;95971.44;4946001;29;20536;-77
2021/12/29 07:56:51;;;;;;;0.70;0.65;;;;;;;7.76;84.07;95973.84;4936823;29;20052;-77
2021/12/29 07:59:19;;;;;;;0.70;0.70;;;;;;;7.78;84.38;95983.09;4936893;29;20047;-77
2021/12/29 08:01:49;;;;;;;2.17;1.20;;;;;;;7.81;84.45;95985.31;4936210;29;20106;-77
2021/12/29 08:04:19;;;;;;;2.53;1.17;;;;;;;7.82;84.32;95989.50;4935922;29;20425;-77
2021/12/29 08:06:47;;;;;;;1.60;1.02;;;;;;;7.82;84.21;95994.69;4935489;29;20541;-77
2021/12/29 08:09:15;;;;;;;3.75;1.00;;;;;;;7.82;84.21;95993.91;4935893;29;20052;-77
2021/12/29 08:11:44;;;;;;;1.02;0.90;;;;;;;7.82;84.04;95993.91;4935818;29;20506;-77
2021/12/29 08:14:12;;;;;;;0.82;0.80;;;;;;;7.81;84.09;96002.69;4935641;29;20056;-77
2021/12/29 08:16:39;;;;;;;0.98;0.90;;;;;;;7.81;84.26;96000.88;4935240;29;20051;-77
2021/12/29 08:19:09;;;;;;;1.85;1.00;;;;;;;7.82;84.48;96005.09;4935389;29;20107;-76
2021/12/29 08:21:37;;;;;;;2.92;1.20;;;;;;;7.83;84.49;96006.72;4935352;29;20528;-77
2021/12/29 08:24:05;;;;;;;1.23;0.90;;;;;;;7.86;84.16;96020.31;4935591;29;20063;-77
2021/12/29 08:26:32;;;;;;;5.35;1.33;;;;;;;7.89;84.16;96010.38;4935352;29;20061;-77
2021/12/29 08:29:01;;;;;;;2.03;0.88;;;;;;;7.91;83.91;96007.59;4935210;29;20051;-77
2021/12/29 08:31:29;;;;;;;2.30;1.05;;;;;;;7.95;83.62;96021.84;4935393;29;20055;-77
2021/12/29 08:33:57;;;;;;;4.40;1.08;;;;;;;7.97;83.22;96022.47;4935211;29;20060;-77
2021/12/29 08:36:26;;;;;;;2.67;1.05;;;;;;;7.98;83.20;96039.66;4935057;29;20425;-77
2021/12/29 08:38:53;;;;;;;2.83;1.20;;;;;;;7.99;83.08;96033.50;4935225;29;20058;-77
2021/12/29 08:41:22;;;;;;;1.55;1.08;;;;;;;7.99;82.97;96036.88;4935046;29;20059;-77
2021/12/29 08:43:49;;;;;;;1.92;1.20;;;;;;;8.02;82.77;96038.31;4935121;29;20058;-77
2021/12/29 08:46:18;;;;;;;5.13;1.50;;;;;;;8.06;82.45;96039.56;4934616;29;20079;-77
2021/12/29 08:48:46;;;;;;;1.25;0.98;;;;;;;8.10;82.48;96040.81;4935073;29;20051;-77
2021/12/29 08:51:14;;;;;;;1.95;0.80;;;;;;;8.12;82.62;96049.25;4935129;29;20067;-77
2021/12/29 08:53:46;;;;;;;2.15;0.85;;;;;;;8.13;82.36;96040.44;4935213;29;20099;-77
2021/12/29 08:56:14;;;;;;;2.33;1.00;;;;;;;8.14;82.29;96052.47;4935032;29;20071;-77
2021/12/29 08:58:42;;;;;;;5.45;1.85;;;;;;;8.15;82.13;96051.47;4934978;29;20048;-77
2021/12/29 09:01:09;;;;;;;2.47;1.52;;;;;;;8.15;82.19;96051.47;4935053;29;20055;-79
2021/12/29 09:03:37;;;;;;;1.63;1.30;;;;;;;8.16;82.69;96047.91;4935053;29;20487;-79
2021/12/29 09:06:05;;;;;;;2.97;1.13;;;;;;;8.18;82.29;96051.13;4934575;29;20090;-79
2021/12/29 09:08:33;;;;;;;4.50;1.00;;;;;;;8.17;81.71;96044.31;4934589;29;20052;-79
2021/12/29 09:11:01;;;;;;;3.97;1.38;;;;;;;8.18;81.94;96037.34;4934614;29;20055;-79
2021/12/29 09:13:29;;;;;;;3.38;1.50;;;;;;;8.23;82.24;96048.00;4934512;29;20062;-79
2021/12/29 09:15:57;;;;;;;4.55;1.50;;;;;;;8.25;81.88;96057.22;4934501;29;20070;-79
2021/12/29 09:18:25;;;;;;;2.90;1.08;;;;;;;8.26;81.34;96068.41;4934639;29;20056;-79
2021/12/29 09:20:53;;;;;;;6.38;2.30;;;;;;;8.27;82.11;96054.44;4934644;29;20058;-79
2021/12/29 09:23:21;;;;;;;4.70;1.67;;;;;;;8.33;81.94;96065.88;4934578;29;20449;-79
2021/12/29 09:25:49;;;;;;;3.38;1.60;;;;;;;8.36;81.36;96076.75;4934811;29;20082;-79
2021/12/29 09:28:19;;;;;;;2.08;1.30;;;;;;;8.38;81.40;96066.97;4936029;29;20056;-79
2021/12/29 09:30:49;;;;;;;4.63;1.45;;;;;;;8.42;80.88;96075.25;4935844;29;20473;-79
2021/12/29 09:33:19;;;;;;;2.95;0.95;;;;;;;8.44;81.10;96076.69;4934596;29;20103;-79
2021/12/29 09:35:48;;;;;;;3.08;1.20;;;;;;;8.48;80.70;96076.31;4934181;29;20074;-80
2021/12/29 09:38:18;;;;;;;3.90;1.13;;;;;;;8.51;80.75;96078.56;4934300;29;20051;-79
2021/12/29 09:40:47;;;;;;;4.03;1.20;;;;;;;8.52;81.09;96086.16;4934384;29;20051;-79
2021/12/29 09:43:15;;;;;;;7.63;2.28;;;;;;;8.56;81.21;96087.41;4937490;29;20075;-79
2021/12/29 09:45:45;;;;;;;3.95;1.20;;;;;;;8.58;80.92;96082.03;4937950;29;20462;-79
2021/12/29 09:48:13;;;;;;;6.20;1.55;;;;;;;8.58;80.63;96082.03;4937760;29;20502;-79
2021/12/29 09:50:42;;;;;;;2.83;1.30;;;;;;;8.59;80.67;96079.28;4937674;29;20051;-79
2021/12/29 09:53:10;;;;;;;3.50;1.20;;;;;;;8.61;80.87;96077.25;4938164;29;20090;-80
2021/12/29 09:55:39;;;;;;;4.30;1.50;;;;;;;8.63;80.82;96079.69;4937800;29;20518;-80
2021/12/29 09:58:08;;;;;;;1.73;0.73;;;;;;;8.65;80.73;96082.91;4937350;29;20429;-79
2021/12/29 10:00:39;;;;;;;4.03;1.50;;;;;;;8.63;81.11;96080.50;4937373;29;20514;-79
2021/12/29 10:03:11;;;;;;;2.92;1.40;;;;;;;8.63;80.84;96088.28;4937498;29;20056;-79
2021/12/29 10:05:43;;;;;;;2.47;1.13;;;;;;;8.67;80.90;96091.34;4937459;29;20051;-80
2021/12/29 10:08:13;;;;;;;2.83;1.48;;;;;;;8.68;80.82;96103.38;4937753;29;20083;-79
2021/12/29 10:10:44;;;;;;;3.22;0.90;;;;;;;8.69;80.87;96096.38;4937575;29;20061;-79
2021/12/29 10:13:12;;;;;;;2.85;1.08;;;;;;;8.68;80.57;96102.53;4937517;29;20051;-79
2021/12/29 10:15:42;;;;;;;2.63;1.10;;;;;;;8.67;79.78;96099.16;4937232;29;20521;-79
2021/12/29 10:18:13;;;;;;;2.80;1.00;;;;;;;8.65;79.04;96093.31;4936994;29;20063;-79
2021/12/29 10:20:46;;;;;;;3.80;1.10;;;;;;;8.64;80.13;96108.13;4937385;29;20047;-79
2021/12/29 10:23:16;;;;;;;;;;;;;;;8.66;80.54;96108.75;4937655;29;20137;-80
2021/12/29 10:25:44;;;;;;;3.08;1.38;;;;;;;8.64;80.47;96104.72;4937318;29;20292;-80
2021/12/29 10:28:21;;;;;;;3.92;1.00;;;;;;;8.61;81.04;96102.47;4937207;29;20047;-80
2021/12/29 10:30:58;;;;;;;1.77;1.33;;;;;;;8.57;80.24;96102.03;4937075;29;20078;-79
2021/12/29 10:33:31;;;;;;;2.40;1.30;;;;;;;8.57;81.12;96109.84;4937198;29;20059;-79
2021/12/29 10:36:10;;;;;;;1.75;0.82;;;;;;;8.59;80.63;96115.66;4936862;29;20060;-79
2021/12/29 10:38:38;;;;;;;2.90;0.95;;;;;;;8.57;80.15;96104.63;4936879;29;20060;-79
2021/12/29 10:41:06;;;;;;;2.28;0.80;;;;;;;8.59;80.75;96100.06;4936919;29;20521;-80
2021/12/29 10:43:34;;;;;;;1.20;0.70;;;;;;;8.62;81.21;96109.28;4937038;29;20074;-79
2021/12/29 10:46:02;;;;;;;2.78;0.60;;;;;;;8.62;80.93;96110.09;4936518;29;20047;-79
2021/12/29 10:48:32;;;;;;;0.82;0.52;;;;;;;8.62;80.21;96106.69;4937034;29;20047;-79
2021/12/29 10:51:03;;;;;;;2.83;0.73;;;;;;;8.63;80.58;96111.69;4936959;29;20054;-79
2021/12/29 10:53:33;;;;;;;1.48;0.50;;;;;;;8.64;80.69;96113.31;4935663;29;20048;-79
2021/12/29 10:56:02;;;;;;;1.45;0.82;;;;;;;8.65;80.97;96114.91;4936438;29;20043;-79
2021/12/29 10:58:34;;;;;;;1.88;0.90;;;;;;;8.66;81.41;96115.75;4936540;29;20055;-79
2021/12/29 11:01:06;;;;;;;1.92;0.73;;;;;;;8.68;81.12;96118.16;4936544;29;20062;-79
2021/12/29 11:03:42;;;;;;;1.88;0.70;;;;;;;8.69;80.91;96124.97;4936567;29;20071;-79
2021/12/29 11:06:13;;;;;;;3.45;0.90;;;;;;;8.69;80.88;96115.38;4936171;29;20425;-79
2021/12/29 11:08:48;;;;;;;1.85;0.88;;;;;;;8.71;81.18;96117.81;4936630;29;20051;-79
2021/12/29 11:11:17;;;;;;;2.50;1.23;;;;;;;8.71;80.71;96126.41;4936307;29;20077;-80
2021/12/29 11:13:44;;;;;;;2.08;1.23;;;;;;;8.76;80.59;96115.44;4936305;29;20052;-77
2021/12/29 11:16:12;;;;;;;1.02;0.80;;;;;;;8.87;80.00;96113.19;4935929;29;20056;-77
2021/12/29 11:18:43;;;;;;;2.33;0.90;;;;;;;9.04;79.55;96113.78;4936498;29;20568;-77
2021/12/29 11:21:15;;;;;;;2.60;0.95;;;;;;;9.17;79.26;96105.31;4936417;29;20048;-77
2021/12/29 11:23:42;;;;;;;4.55;1.30;;;;;;;9.31;78.75;96102.81;4936491;29;20074;-76
2021/12/29 11:26:13;;;;;;;2.35;1.33;;;;;;;9.41;79.12;96109.34;4936224;29;20052;-77
2021/12/29 11:28:41;;;;;;;2.80;1.90;;;;;;;9.51;78.24;96095.19;4936206;29;20107;-77
2021/12/29 11:31:11;;;;;;;6.13;2.20;;;;;;;9.66;78.36;96086.34;4936116;29;20051;-77
2021/12/29 11:33:39;;;;;;;2.25;1.15;;;;;;;9.76;78.02;96085.19;4936069;29;20055;-77
2021/12/29 11:36:07;;;;;;;4.07;1.48;;;;;;;9.85;77.38;96084.06;4935787;29;20066;-77
2021/12/29 11:38:35;;;;;;;2.38;1.25;;;;;;;9.96;77.56;96080.13;4936223;29;20047;-78
2021/12/29 11:41:04;;;;;;;2.80;1.40;;;;;;;10.06;77.11;96086.59;4936005;29;20051;-77
2021/12/29 11:43:32;;;;;;;4.38;1.17;;;;;;;10.15;76.87;96092.47;4936121;29;20060;-77
2021/12/29 11:46:00;;;;;;;3.47;1.52;;;;;;;10.19;75.94;96093.72;4935965;29;20422;-77
2021/12/29 11:48:29;;;;;;;2.05;0.77;;;;;;;10.19;76.21;96085.06;4936320;29;20138;-77
2021/12/29 11:51:03;;;;;;;1.02;0.57;;;;;;;10.16;75.64;96085.47;4935903;29;20048;-77